Track Сидоров Степан

Time Latitude Longitude Accuracy (66% radius in meters) Altitude (meters) Speed (km/hour) Bearing (degrees) Battery (%) GPS flag
04:10:55 51.900607 107.659837 7.4000000953674 679.7 1.0855491161346 353.82998657227 89 1 delete
04:10:47 51.900513 107.659845 7.4000000953674 677.4 1.0917258262634 356.70999145508 89 1 delete
04:10:39 51.900408 107.659867 7.4000000953674 675.1 1.0731958150864 6.4299998283386 89 1 delete
04:10:33 51.900307 107.659863 7.4000000953674 672.2 1.1488599777222 352.10000610352 89 1 delete
04:10:26 51.900215 107.659880 7.4000000953674 671 1.06547498703 0.56999999284744 89 1 delete
04:10:18 51.900117 107.659872 7.4000000953674 669.3 1.2626136541367 352.48001098633 89 1 delete
04:10:11 51.900013 107.659887 7.4000000953674 668.3 0.91980862617493 350.14999389648 89 1 delete
04:10:00 51.899917 107.659878 7.4000000953674 668.2 0.64031445980072 8.6199998855591 89 1 delete
04:09:50 51.899827 107.659885 7.4000000953674 668.6 0 0 89 1 delete
04:09:40 51.899735 107.659913 7.4000000953674 669.5 0.89149886369705 354.63000488281 89 1 delete
04:09:29 51.899637 107.659918 7.4000000953674 669.8 0.76693612337112 359.67999267578 89 1 delete
04:09:21 51.899543 107.659923 7.4000000953674 669.6 0.66862416267395 359.67999267578 89 1 delete
04:09:12 51.899450 107.659915 7.4000000953674 669.5 0.69538974761963 358.38000488281 89 1 delete
04:08:56 51.899360 107.659938 7.4000000953674 670.3 0 0 89 1 delete
04:08:48 51.899273 107.659987 7.4000000953674 670.4 0 0 89 1 delete
04:08:38 51.899207 107.660087 7.5 670.7 0.5826655626297 341.30999755859 89 1 delete
04:08:30 51.899152 107.660203 7.4000000953674 670.8 1.0315033197403 334.11999511719 89 1 delete
04:08:23 51.899127 107.660348 7.4000000953674 671 0 0 89 1 delete
04:08:17 51.899093 107.660487 7.5 671.5 0 0 89 1 delete
04:08:09 51.899115 107.660630 7.5 671.7 1.0057672262192 273.57998657227 89 1 delete
04:08:02 51.899125 107.660793 7.5 671.7 1.8097633123398 270.95001220703 89 1 delete
04:07:55 51.899113 107.660948 7.4000000953674 671.7 0 0 89 1 delete
04:07:36 51.899120 107.661103 7.4000000953674 670.9 0 0 89 1 delete
04:07:25 51.899158 107.661270 7.5 667.4 0.54817914962769 273.91000366211 89 1 delete
04:07:19 51.899152 107.661423 7.5 668.8 1.4546049833298 258.20999145508 89 1 delete
04:07:15 51.899178 107.661592 7.5 671 3.0342874526978 252.78999328613 89 1 delete
04:07:12 51.899208 107.661753 7.5 673.5 3.5273914337158 258.2799987793 89 1 delete
04:07:09 51.899240 107.661907 7.5 675.9 3.0759799480438 256.63000488281 89 1 delete
04:07:06 51.899278 107.662038 7.5 677.7 2.5262565612793 260.23999023438 89 1 delete
04:07:00 51.899305 107.662213 7.5 679.9 1.0556952953339 269.69000244141 89 1 delete
04:06:53 51.899327 107.662358 7.5 681.8 0.59759247303009 268.48999023438 89 1 delete
04:06:46 51.899372 107.662510 7.5 685.6 2.0063872337341 253.52000427246 89 1 delete
04:06:40 51.899420 107.662665 7.5 689.3 1.374308347702 237.05999755859 89 1 delete
04:06:32 51.899498 107.662767 7.5 692.7 1.9724155664444 229.39999389648 89 1 delete
04:06:28 51.899563 107.662872 7.5 694.6 2.8587672710419 223.33999633789 89 1 delete
04:06:23 51.899638 107.663005 7.5 695.2 0 0 89 1 delete
04:06:12 51.899650 107.663150 7.5 696.8 1.9955780506134 218.30000305176 89 1 delete
04:06:06 51.899713 107.663277 7.5 697.8 2.0588889122009 241.14999389648 89 1 delete
04:05:55 51.899752 107.663437 7.5 698.1 1.3140858411789 253.16999816895 89 1 delete
04:05:28 51.899815 107.663542 7.5999999046326 695.8 1.1426833868027 256.16000366211 89 1 delete
04:05:21 51.899783 107.663685 7.5999999046326 695.8 0 0 89 1 delete
04:05:10 51.899790 107.663832 7.5999999046326 696.2 1.1375361680984 279.76998901367 89 1 delete
04:05:00 51.899717 107.663928 7.6999998092651 696.3 0 0 89 1 delete
04:04:54 51.899792 107.664025 7.8000001907349 696.3 0.89921975135803 60.240001678467 89 1 delete
04:04:51 51.899882 107.664072 7.9000000953674 696.4 1.471076130867 61.759998321533 89 1 delete
04:04:47 51.899995 107.664147 8 696.4 0 0 89 1 delete
04:04:46 51.899997 107.664905 8.3000001907349 696.4 0 0 89 1 delete
04:04:43 51.900040 107.665045 9 696.4 0 0 89 1 delete
04:03:35 51.899702 107.665853 7.8000001907349 696.5 0.77053916454315 342.39999389648 89 1 delete
04:02:34 51.898838 107.664800 7.8000001907349 696.5 0 0 89 1 delete